Time;durP1;ratioP1;P1;durP2;ratioP2;P2;SDS_P1;SDS_P2;PMS_P1;PMS_P2;Temp;Humidity;BMP_temperature;BMP_pressure;BME280_temperature;BME280_humidity;BME280_pressure;Samples;Min_cycle;Max_cycle;Signal;HPM_P1;HPM_P2
2022/06/25 00:01:32;;;;;;;9.13;3.42;;;17.50;99.90;;;;;;5089547;28;20013;-74
2022/06/25 00:03:58;;;;;;;7.15;4.20;;;17.50;99.90;;;;;;5084387;28;20047;-73
2022/06/25 00:06:24;;;;;;;5.43;3.70;;;17.40;99.90;;;;;;5097443;28;20016;-73
2022/06/25 00:08:50;;;;;;;10.73;3.75;;;17.40;99.90;;;;;;5090825;28;20028;-74
2022/06/25 00:14:05;;;;;;;4.55;3.10;;;17.40;99.90;;;;;;5092827;28;20020;-73
2022/06/25 00:16:31;;;;;;;5.90;4.00;;;17.40;99.90;;;;;;5097428;28;20019;-73
2022/06/25 00:18:57;;;;;;;7.88;4.20;;;17.40;99.90;;;;;;5096583;28;20480;-73
2022/06/25 00:21:23;;;;;;;5.78;3.22;;;17.40;99.90;;;;;;5098311;28;20123;-73
2022/06/25 00:23:49;;;;;;;4.30;2.92;;;17.40;99.90;;;;;;5098236;28;20056;-73
2022/06/25 00:26:15;;;;;;;10.07;4.18;;;17.30;99.90;;;;;;5081491;28;20020;-73
2022/06/25 00:28:41;;;;;;;5.72;3.33;;;17.30;99.90;;;;;;5083172;28;20418;-73
2022/06/25 00:31:07;;;;;;;8.10;3.35;;;17.30;99.90;;;;;;5084290;28;20021;-74
2022/06/25 00:33:32;;;;;;;3.65;3.05;;;17.30;99.90;;;;;;5084091;28;20032;-73
2022/06/25 00:35:58;;;;;;;5.82;3.45;;;17.30;99.90;;;;;;5087939;28;20032;-73
2022/06/25 00:38:24;;;;;;;4.75;2.97;;;17.20;99.90;;;;;;5087099;28;20020;-73
2022/06/25 00:40:50;;;;;;;6.32;3.13;;;17.20;99.90;;;;;;5098902;28;20488;-73
2022/06/25 00:43:16;;;;;;;9.73;3.55;;;17.20;99.90;;;;;;5089336;28;20365;-73
2022/06/25 00:45:45;;;;;;;5.72;3.13;;;17.20;99.90;;;;;;5094264;28;20058;-73
2022/06/25 00:48:11;;;;;;;7.30;3.15;;;17.10;99.90;;;;;;5093224;28;20086;-74
2022/06/25 00:50:37;;;;;;;9.05;3.42;;;17.10;99.90;;;;;;5096094;28;20115;-74
2022/06/25 00:53:04;;;;;;;5.22;3.20;;;17.00;99.90;;;;;;5096982;28;20496;-73
2022/06/25 00:55:31;;;;;;;6.70;3.55;;;17.00;99.90;;;;;;5099503;28;20073;-73
2022/06/25 00:58:01;;;;;;;8.20;3.67;;;17.00;99.90;;;;;;5085402;28;20032;-74
2022/06/25 01:00:27;;;;;;;3.17;2.88;;;16.90;99.90;;;;;;5080895;28;20021;-74
2022/06/25 01:02:53;;;;;;;7.05;3.00;;;16.90;99.90;;;;;;5082625;28;20028;-74
2022/06/25 01:05:19;;;;;;;5.03;2.92;;;16.80;99.90;;;;;;5081666;28;20020;-74
2022/06/25 01:07:47;;;;;;;5.80;3.35;;;16.80;99.90;;;;;;5085920;28;20040;-74
2022/06/25 01:10:14;;;;;;;5.68;3.42;;;16.80;99.90;;;;;;5086861;28;20487;-73
2022/06/25 01:12:41;;;;;;;8.88;4.07;;;16.70;99.90;;;;;;5087847;28;20550;-74
2022/06/25 01:15:13;;;;;;;5.05;3.67;;;16.60;99.90;;;;;;5090206;28;20012;-74
2022/06/25 01:18:05;;;;;;;4.72;3.63;;;16.60;99.90;;;;;;5089338;28;20081;-73
2022/06/25 01:20:31;;;;;;;7.53;3.35;;;16.60;99.90;;;;;;5086591;28;20035;-74
2022/06/25 01:22:57;;;;;;;6.60;3.53;;;16.60;99.90;;;;;;5095439;28;20032;-74
2022/06/25 01:25:23;;;;;;;3.67;3.28;;;16.60;99.90;;;;;;5093218;28;20552;-74
2022/06/25 01:27:49;;;;;;;7.53;3.83;;;16.60;99.90;;;;;;5084544;28;20525;-73
2022/06/25 01:30:15;;;;;;;6.18;3.42;;;16.50;99.90;;;;;;5097420;28;20028;-73
2022/06/25 01:32:41;;;;;;;8.05;3.40;;;16.50;99.90;;;;;;5092148;28;20028;-73
2022/06/25 01:35:10;;;;;;;7.68;3.90;;;16.50;99.90;;;;;;5078384;28;20017;-74
2022/06/25 01:37:37;;;;;;;4.75;3.63;;;16.50;99.90;;;;;;5080449;28;20043;-73
2022/06/25 01:40:03;;;;;;;4.55;3.40;;;16.50;99.90;;;;;;5089151;28;20026;-73
2022/06/25 01:45:15;;;;;;;5.28;3.35;;;16.50;99.90;;;;;;5091290;28;20089;-73
2022/06/25 01:47:41;;;;;;;4.00;3.60;;;16.40;99.90;;;;;;5094785;28;20031;-74
2022/06/25 01:50:08;;;;;;;5.35;3.88;;;16.40;99.90;;;;;;5091012;28;20508;-73
2022/06/25 01:52:35;;;;;;;7.10;3.65;;;16.40;99.90;;;;;;5095353;28;20039;-73
2022/06/25 01:55:01;;;;;;;4.20;3.17;;;16.40;99.90;;;;;;5096040;28;20400;-73
2022/06/25 01:57:26;;;;;;;6.70;3.15;;;16.40;99.90;;;;;;5096360;28;20032;-74
2022/06/25 01:59:52;;;;;;;9.68;3.90;;;16.30;99.90;;;;;;5098248;28;20020;-74
2022/06/25 02:02:18;;;;;;;6.60;3.00;;;16.30;99.90;;;;;;5094388;28;20456;-74
2022/06/25 02:04:44;;;;;;;8.02;3.38;;;16.30;99.90;;;;;;5092837;28;20042;-74
2022/06/25 02:07:10;;;;;;;3.15;2.83;;;16.30;99.90;;;;;;5091289;28;20054;-74
2022/06/25 02:09:36;;;;;;;9.02;3.80;;;16.20;99.90;;;;;;5085944;28;20569;-73
2022/06/25 02:12:04;;;;;;;3.67;2.92;;;16.20;99.90;;;;;;5085562;28;20489;-73
2022/06/25 02:14:30;;;;;;;6.38;3.33;;;16.20;99.90;;;;;;5093369;28;20016;-73
2022/06/25 02:16:56;;;;;;;6.82;3.00;;;16.20;99.90;;;;;;5091157;28;20031;-74
2022/06/25 02:19:21;;;;;;;5.28;3.50;;;16.10;99.90;;;;;;5090611;28;20012;-74
2022/06/25 02:21:47;;;;;;;8.13;3.00;;;16.10;99.90;;;;;;5093299;28;20416;-74
2022/06/25 02:24:13;;;;;;;10.73;4.05;;;16.10;99.90;;;;;;5092973;28;20418;-74
2022/06/25 02:26:39;;;;;;;5.03;3.65;;;16.10;99.90;;;;;;5096724;28;20404;-74
2022/06/25 02:29:05;;;;;;;6.38;3.60;;;16.10;99.90;;;;;;5095804;28;20081;-73
2022/06/25 02:31:30;;;;;;;6.53;3.33;;;16.10;99.90;;;;;;5097282;28;20039;-74
2022/06/25 02:33:56;;;;;;;9.73;3.30;;;16.10;99.90;;;;;;5084616;28;20020;-74
2022/06/25 02:36:22;;;;;;;7.82;3.83;;;16.00;99.90;;;;;;5079254;28;20078;-74
2022/06/25 02:38:48;;;;;;;4.40;3.70;;;16.00;99.90;;;;;;5085311;28;20091;-73
2022/06/25 02:41:14;;;;;;;4.75;3.95;;;16.00;99.90;;;;;;5083697;28;20472;-73
2022/06/25 02:43:40;;;;;;;5.05;4.30;;;15.90;99.90;;;;;;5087934;28;20020;-74
2022/06/25 02:46:05;;;;;;;5.80;3.40;;;15.90;99.90;;;;;;5087596;28;20032;-74
2022/06/25 02:48:31;;;;;;;10.73;3.70;;;15.90;99.90;;;;;;5089771;28;20031;-74
2022/06/25 02:50:57;;;;;;;10.43;3.15;;;15.90;99.90;;;;;;5094112;28;20080;-74
2022/06/25 02:53:23;;;;;;;8.93;3.88;;;15.90;99.90;;;;;;5093828;28;20020;-74
2022/06/25 03:01:17;;;;;;;10.48;3.70;;;15.80;99.90;;;;;;5087774;28;20150;-74
2022/06/25 03:03:43;;;;;;;4.03;3.53;;;15.80;99.90;;;;;;5093021;28;20044;-74
2022/06/25 03:06:09;;;;;;;5.93;3.33;;;15.80;99.90;;;;;;5090984;28;20490;-74
2022/06/25 03:08:35;;;;;;;7.65;3.67;;;15.80;99.90;;;;;;5094303;28;20024;-74
2022/06/25 03:11:02;;;;;;;6.95;3.70;;;15.80;99.90;;;;;;5094940;28;20044;-74
2022/06/25 03:13:29;;;;;;;4.72;4.00;;;15.80;99.90;;;;;;5097243;28;20039;-74
2022/06/25 03:15:55;;;;;;;6.03;3.70;;;15.70;99.90;;;;;;5089446;28;20028;-74
2022/06/25 03:18:21;;;;;;;4.85;3.95;;;15.70;99.90;;;;;;5079328;28;20546;-74
2022/06/25 03:20:47;;;;;;;8.77;4.72;;;15.70;99.90;;;;;;5081224;28;20032;-74
2022/06/25 03:23:12;;;;;;;6.10;3.88;;;15.60;99.90;;;;;;5086572;28;20016;-74
2022/06/25 03:25:38;;;;;;;5.82;4.05;;;15.60;99.90;;;;;;5088803;28;20028;-74
2022/06/25 03:28:04;;;;;;;5.22;4.22;;;15.60;99.90;;;;;;5084955;28;20441;-74
2022/06/25 03:30:30;;;;;;;6.57;4.25;;;15.60;99.90;;;;;;5087330;28;20028;-74
2022/06/25 03:32:56;;;;;;;3.85;3.40;;;15.50;99.90;;;;;;5089000;28;20028;-74
2022/06/25 03:35:22;;;;;;;4.82;3.42;;;15.50;99.90;;;;;;5088882;28;20030;-74
2022/06/25 03:37:48;;;;;;;4.38;3.80;;;15.50;99.90;;;;;;5093444;28;20051;-73
2022/06/25 03:40:16;;;;;;;7.97;3.88;;;15.40;99.90;;;;;;5090838;28;20103;-74
2022/06/25 03:42:43;;;;;;;6.85;3.80;;;15.40;99.90;;;;;;5097080;28;20024;-74
2022/06/25 03:45:09;;;;;;;7.07;4.63;;;15.40;99.90;;;;;;5094621;28;20032;-74
2022/06/25 03:47:35;;;;;;;5.25;4.25;;;15.40;99.90;;;;;;5097012;28;20032;-74
2022/06/25 03:50:01;;;;;;;8.18;4.18;;;15.40;99.90;;;;;;5081629;28;20044;-74
2022/06/25 03:52:27;;;;;;;5.72;4.45;;;15.40;99.90;;;;;;5078771;28;20028;-74
2022/06/25 03:54:53;;;;;;;7.80;4.47;;;15.30;99.90;;;;;;5082606;28;20032;-74
2022/06/25 03:57:20;;;;;;;7.55;4.28;;;15.40;99.90;;;;;;5085619;28;20070;-74
2022/06/25 03:59:46;;;;;;;4.40;3.80;;;15.30;99.90;;;;;;5088745;28;20491;-74
2022/06/25 04:02:11;;;;;;;4.82;4.22;;;15.30;99.90;;;;;;5085337;28;20086;-74
2022/06/25 04:04:37;;;;;;;8.02;3.80;;;15.30;99.90;;;;;;5086574;28;20024;-74
2022/06/25 04:07:04;;;;;;;4.90;3.80;;;15.30;99.90;;;;;;5090019;28;20499;-74
2022/06/25 04:09:30;;;;;;;4.82;4.38;;;15.20;99.90;;;;;;5088430;28;20039;-74
2022/06/25 04:11:56;;;;;;;8.85;4.95;;;15.20;99.90;;;;;;5092844;28;20024;-74
2022/06/25 04:14:22;;;;;;;9.15;4.93;;;15.20;99.90;;;;;;5090903;28;20493;-74
2022/06/25 04:16:49;;;;;;;8.13;4.47;;;15.20;99.90;;;;;;5094875;28;20020;-74
2022/06/25 04:19:14;;;;;;;9.02;6.07;;;15.20;99.90;;;;;;5098560;28;20469;-74
2022/06/25 04:21:40;;;;;;;8.23;4.43;;;15.20;99.90;;;;;;5090871;28;20071;-74
2022/06/25 04:24:06;;;;;;;5.15;4.35;;;15.20;99.90;;;;;;5081582;28;20024;-75
2022/06/25 04:26:32;;;;;;;6.88;4.82;;;15.20;99.90;;;;;;5082554;28;20024;-74
2022/06/25 04:29:04;;;;;;;7.68;4.78;;;15.20;99.90;;;;;;5086769;28;20024;-74
2022/06/25 04:31:34;;;;;;;7.60;4.93;;;15.20;99.90;;;;;;5083308;28;20488;-74
2022/06/25 04:34:00;;;;;;;7.22;5.57;;;15.30;99.90;;;;;;5098105;28;20032;-74
2022/06/25 04:36:27;;;;;;;11.02;5.65;;;15.30;99.90;;;;;;5087338;28;20013;-74
2022/06/25 04:38:53;;;;;;;6.25;5.30;;;15.30;99.90;;;;;;5090761;28;20016;-74
2022/06/25 04:41:19;;;;;;;10.27;5.25;;;15.40;99.90;;;;;;5089454;28;20017;-74
2022/06/25 04:43:45;;;;;;;8.57;5.00;;;15.40;99.90;;;;;;5093369;28;20031;-74
2022/06/25 04:46:11;;;;;;;7.35;5.28;;;15.50;99.90;;;;;;5096264;28;20020;-74
2022/06/25 04:48:36;;;;;;;8.32;5.95;;;15.50;99.90;;;;;;5094380;28;20500;-75
2022/06/25 04:51:02;;;;;;;9.02;5.25;;;15.60;99.90;;;;;;5093621;28;20028;-74
2022/06/25 04:53:28;;;;;;;7.70;4.70;;;15.60;99.90;;;;;;5090130;28;20088;-74
2022/06/25 04:55:54;;;;;;;5.40;4.90;;;15.70;99.90;;;;;;5088570;28;20025;-74
2022/06/25 04:58:20;;;;;;;6.60;5.00;;;15.80;99.90;;;;;;5080348;28;20060;-74
2022/06/25 05:00:46;;;;;;;13.23;5.63;;;15.90;99.90;;;;;;5081469;28;20017;-74
2022/06/25 05:03:12;;;;;;;10.02;4.75;;;16.00;99.90;;;;;;5096331;28;20028;-75
2022/06/25 05:05:38;;;;;;;7.35;5.20;;;16.10;99.90;;;;;;5083353;28;20024;-75
2022/06/25 05:08:04;;;;;;;8.10;5.10;;;16.10;99.90;;;;;;5087310;28;20039;-75
2022/06/25 05:10:30;;;;;;;7.53;4.93;;;16.20;99.90;;;;;;5086463;28;20016;-75
2022/06/25 05:13:14;;;;;;;11.85;4.50;;;16.20;99.90;;;;;;5088841;28;20138;-74
2022/06/25 05:15:40;;;;;;;6.45;5.50;;;16.30;99.90;;;;;;5086258;28;20016;-74
2022/06/25 05:18:07;;;;;;;9.35;5.63;;;16.40;99.90;;;;;;5085928;28;20028;-75
2022/06/25 05:20:37;;;;;;;7.72;4.95;;;16.50;99.90;;;;;;5093699;28;20017;-74
2022/06/25 05:23:03;;;;;;;10.43;5.47;;;16.60;99.90;;;;;;5096904;28;20024;-74
2022/06/25 05:25:29;;;;;;;8.68;4.95;;;16.80;99.90;;;;;;5096073;28;20054;-74
2022/06/25 05:27:55;;;;;;;7.97;5.50;;;16.90;99.90;;;;;;5098867;28;20020;-74
2022/06/25 05:30:21;;;;;;;10.15;5.82;;;17.00;99.90;;;;;;5084513;28;20035;-74
2022/06/25 05:32:48;;;;;;;9.45;5.30;;;17.10;99.90;;;;;;5080280;28;20074;-74
2022/06/25 05:35:13;;;;;;;10.88;5.65;;;17.30;99.90;;;;;;5081140;28;20082;-75
2022/06/25 05:37:39;;;;;;;9.52;4.70;;;17.40;99.90;;;;;;5082456;28;20024;-75
2022/06/25 05:40:06;;;;;;;7.90;5.68;;;17.50;99.90;;;;;;5091927;28;20020;-75
2022/06/25 05:42:32;;;;;;;10.23;5.47;;;17.60;99.90;;;;;;5095033;28;20028;-75
2022/06/25 05:44:57;;;;;;;11.13;5.57;;;17.60;99.90;;;;;;5091937;28;20031;-75
2022/06/25 05:47:23;;;;;;;8.43;5.25;;;17.70;99.90;;;;;;5091506;28;20567;-74
2022/06/25 05:49:49;;;;;;;9.90;4.68;;;17.80;99.90;;;;;;5086167;28;20040;-74
2022/06/25 05:52:16;;;;;;;8.45;5.43;;;17.90;99.90;;;;;;5082081;28;20078;-75
2022/06/25 05:54:42;;;;;;;9.75;4.60;;;18.00;99.90;;;;;;5081909;28;20030;-75
2022/06/25 05:57:07;;;;;;;8.02;4.95;;;18.00;99.90;;;;;;5095311;28;20025;-75
2022/06/25 05:59:34;;;;;;;7.68;5.55;;;18.10;99.90;;;;;;5085687;28;20545;-74
2022/06/25 06:02:00;;;;;;;9.40;5.15;;;18.20;99.90;;;;;;5090601;28;20602;-75
2022/06/25 06:04:26;;;;;;;11.90;5.35;;;18.30;99.90;;;;;;5087241;28;20063;-74
2022/06/25 06:06:53;;;;;;;10.80;4.75;;;18.30;99.90;;;;;;5093371;28;20024;-76
2022/06/25 06:09:19;;;;;;;8.13;4.68;;;18.40;99.90;;;;;;5090110;28;20019;-74
2022/06/25 06:11:45;;;;;;;6.30;4.93;;;18.60;99.90;;;;;;5096025;28;20024;-76
2022/06/25 06:14:11;;;;;;;19.08;11.18;;;18.60;99.90;;;;;;5096207;28;20020;-74
2022/06/25 06:16:37;;;;;;;22.85;14.60;;;18.70;99.90;;;;;;5091936;28;20086;-74
2022/06/25 06:19:03;;;;;;;16.13;10.00;;;18.80;99.90;;;;;;5083704;28;20029;-73
2022/06/25 06:21:29;;;;;;;25.60;10.82;;;19.00;99.90;;;;;;5090279;28;20024;-74
2022/06/25 06:23:55;;;;;;;10.48;6.70;;;19.20;99.90;;;;;;5111725;28;20077;-73
2022/06/25 06:26:21;;;;;;;20.52;8.68;;;19.30;99.90;;;;;;5079529;28;20115;-73
2022/06/25 06:28:46;;;;;;;19.50;9.70;;;19.40;99.90;;;;;;5091829;28;20384;-74
2022/06/25 06:31:12;;;;;;;11.95;5.13;;;19.60;99.90;;;;;;5082223;28;20080;-73
2022/06/25 06:33:38;;;;;;;8.75;4.30;;;19.80;99.90;;;;;;5081787;28;20481;-74
2022/06/25 06:36:04;;;;;;;6.97;4.13;;;19.90;99.90;;;;;;5086258;28;20030;-74
2022/06/25 06:38:30;;;;;;;5.25;3.03;;;20.00;99.90;;;;;;5084689;28;20392;-74
2022/06/25 06:40:56;;;;;;;6.25;3.35;;;20.10;99.90;;;;;;5092461;28;20016;-72
2022/06/25 06:43:22;;;;;;;5.38;2.70;;;20.10;99.90;;;;;;5087992;28;20625;-74
2022/06/25 06:45:48;;;;;;;5.40;2.55;;;20.20;99.90;;;;;;5095934;28;20032;-74
2022/06/25 06:48:13;;;;;;;6.85;2.42;;;20.20;99.90;;;;;;5092652;28;20024;-75
2022/06/25 06:50:39;;;;;;;4.25;2.72;;;20.30;99.90;;;;;;5095732;28;20047;-74
2022/06/25 06:53:05;;;;;;;6.28;3.08;;;20.50;99.90;;;;;;5096812;28;20465;-75
2022/06/25 06:55:31;;;;;;;5.80;2.10;;;20.60;99.90;;;;;;5082794;28;20044;-74
2022/06/25 06:57:57;;;;;;;5.45;2.42;;;20.60;99.90;;;;;;5091534;28;20035;-74
2022/06/25 07:00:23;;;;;;;5.57;2.08;;;20.60;99.90;;;;;;5097130;28;20087;-75
2022/06/25 07:02:48;;;;;;;5.05;2.88;;;20.60;99.90;;;;;;5083047;28;20031;-75
2022/06/25 07:05:14;;;;;;;5.55;2.22;;;20.70;99.90;;;;;;5083644;28;20055;-74
2022/06/25 07:07:40;;;;;;;4.63;1.83;;;20.90;99.90;;;;;;5086122;28;20112;-74
2022/06/25 07:10:06;;;;;;;3.70;2.45;;;21.00;99.90;;;;;;5080721;28;20028;-76
2022/06/25 07:12:32;;;;;;;3.70;2.25;;;21.30;99.90;;;;;;5081675;28;20090;-75
2022/06/25 07:14:58;;;;;;;3.55;1.95;;;21.50;99.90;;;;;;5087620;28;20024;-75
2022/06/25 07:17:24;;;;;;;3.70;1.92;;;21.60;99.90;;;;;;5089662;28;20044;-74
2022/06/25 07:19:49;;;;;;;4.90;2.63;;;21.80;99.90;;;;;;5088015;28;20057;-74
2022/06/25 07:22:15;;;;;;;5.22;2.10;;;21.90;99.90;;;;;;5089552;28;20166;-74
2022/06/25 07:24:41;;;;;;;3.20;1.98;;;22.00;99.90;;;;;;5092746;28;20027;-75
2022/06/25 07:27:07;;;;;;;4.70;1.60;;;22.10;99.90;;;;;;5089744;28;20031;-73
2022/06/25 07:29:33;;;;;;;3.35;1.75;;;22.20;99.90;;;;;;5093368;28;20051;-75
2022/06/25 07:31:58;;;;;;;3.03;1.60;;;22.40;99.90;;;;;;5093118;28;20024;-75
2022/06/25 07:34:24;;;;;;;2.33;1.30;;;22.50;99.90;;;;;;5095746;28;20020;-74
2022/06/25 07:36:50;;;;;;;3.80;1.65;;;22.70;99.90;;;;;;5096309;28;20025;-75
2022/06/25 07:39:16;;;;;;;7.43;2.10;;;22.70;99.90;;;;;;5077586;28;20077;-75
2022/06/25 07:41:42;;;;;;;5.10;1.70;;;22.80;99.90;;;;;;5080776;28;20044;-75
2022/06/25 07:44:08;;;;;;;6.75;1.80;;;23.00;99.90;;;;;;5082056;28;20049;-76
2022/06/25 07:46:34;;;;;;;3.45;2.00;;;23.00;99.90;;;;;;5081571;28;20475;-74
2022/06/25 07:49:00;;;;;;;6.68;2.17;;;23.10;99.90;;;;;;5085569;28;20036;-75
2022/06/25 07:54:10;;;;;;;1.75;1.20;;;23.50;99.90;;;;;;5091199;28;20412;-75
2022/06/25 07:56:36;;;;;;;3.80;1.70;;;23.60;99.90;;;;;;5097259;28;20016;-76
2022/06/25 07:59:01;;;;;;;3.65;1.38;;;23.70;99.90;;;;;;5096715;28;20088;-75
2022/06/25 08:01:27;;;;;;;2.72;1.92;;;23.80;99.90;;;;;;5095784;28;20207;-74
2022/06/25 08:03:53;;;;;;;4.82;1.90;;;23.90;99.90;;;;;;5099708;28;20078;-75
2022/06/25 08:06:19;;;;;;;3.17;1.50;;;24.10;99.90;;;;;;5096553;28;20021;-76
2022/06/25 08:08:45;;;;;;;2.08;1.50;;;24.20;99.90;;;;;;5081837;28;20031;-76
2022/06/25 08:11:11;;;;;;;5.55;1.60;;;24.30;99.90;;;;;;5085142;28;20028;-76
2022/06/25 08:13:39;;;;;;;2.42;1.38;;;24.50;99.90;;;;;;5082574;28;20032;-75
2022/06/25 08:16:06;;;;;;;3.05;1.65;;;24.50;99.90;;;;;;5095250;28;20419;-75
2022/06/25 08:18:32;;;;;;;2.33;1.40;;;24.60;99.90;;;;;;5085447;28;20032;-75
2022/06/25 08:20:57;;;;;;;7.13;1.42;;;24.70;99.90;;;;;;5090679;28;20039;-74
2022/06/25 08:23:23;;;;;;;3.35;1.33;;;24.90;99.90;;;;;;5088712;28;20020;-76
2022/06/25 08:25:49;;;;;;;4.07;1.27;;;25.10;99.90;;;;;;5093235;28;20016;-76
2022/06/25 08:28:15;;;;;;;4.78;1.10;;;25.30;99.90;;;;;;5092663;28;20024;-75
2022/06/25 08:30:42;;;;;;;1.75;1.10;;;25.20;99.90;;;;;;5095176;28;20530;-75
2022/06/25 08:33:09;;;;;;;2.22;1.40;;;25.30;99.90;;;;;;5096406;28;20556;-75
2022/06/25 08:35:35;;;;;;;1.88;1.30;;;25.30;99.90;;;;;;5096173;28;20027;-75
2022/06/25 08:38:02;;;;;;;3.50;1.23;;;25.30;99.90;;;;;;5100230;28;20517;-75
2022/06/25 08:40:28;;;;;;;6.30;1.15;;;25.50;99.90;;;;;;5098309;28;20024;-74
2022/06/25 08:42:54;;;;;;;5.53;1.52;;;25.60;99.90;;;;;;5083411;28;20031;-75
2022/06/25 08:45:20;;;;;;;6.10;1.10;;;25.60;99.90;;;;;;5097044;28;20020;-75
2022/06/25 08:47:48;;;;;;;5.15;1.00;;;25.40;99.90;;;;;;5088494;28;20035;-75
2022/06/25 08:50:16;;;;;;;4.65;1.42;;;25.40;99.90;;;;;;5080124;28;20094;-75
2022/06/25 08:52:50;;;;;;;1.40;0.93;;;25.70;99.90;;;;;;5091627;28;20028;-73
2022/06/25 08:55:28;;;;;;;2.20;1.10;;;25.90;99.90;;;;;;5086150;28;20023;-74
2022/06/25 08:57:55;;;;;;;5.47;1.25;;;26.00;99.90;;;;;;5084993;28;20020;-74
2022/06/25 09:00:20;;;;;;;3.53;1.17;;;25.90;99.90;;;;;;5088134;28;20016;-75
2022/06/25 09:02:46;;;;;;;5.57;1.45;;;25.70;99.90;;;;;;5085654;28;20115;-74
2022/06/25 09:05:12;;;;;;;4.05;1.15;;;25.60;99.90;;;;;;5090567;28;20024;-75
2022/06/25 09:07:38;;;;;;;5.28;1.60;;;25.50;99.90;;;;;;5087430;28;20496;-73
2022/06/25 09:10:04;;;;;;;5.60;1.08;;;25.40;99.90;;;;;;5097566;28;20115;-74
2022/06/25 09:12:33;;;;;;;3.17;1.40;;;25.60;99.90;;;;;;5092601;28;20020;-75
2022/06/25 09:14:58;;;;;;;2.50;0.95;;;25.70;99.90;;;;;;5095885;28;20488;-74
2022/06/25 09:17:24;;;;;;;5.93;1.20;;;25.90;99.90;;;;;;5097146;28;20095;-74
2022/06/25 09:19:51;;;;;;;2.38;1.00;;;25.90;99.90;;;;;;5089032;28;20017;-74
2022/06/25 09:22:24;;;;;;;2.88;1.05;;;25.90;99.90;;;;;;5079518;28;20062;-74
2022/06/25 09:24:55;;;;;;;2.17;1.02;;;25.80;99.90;;;;;;5079928;28;20024;-74
2022/06/25 09:27:48;;;;;;;4.18;1.23;;;25.90;99.90;;;;;;5083640;28;20024;-74
2022/06/25 09:30:16;;;;;;;2.08;1.17;;;25.90;99.90;;;;;;5082302;28;20035;-74
2022/06/25 09:32:46;;;;;;;4.18;1.20;;;26.20;99.90;;;;;;5087494;28;20028;-76
2022/06/25 09:35:33;;;;;;;5.18;1.30;;;26.30;99.90;;;;;;5085584;28;20441;-73
2022/06/25 09:38:06;;;;;;;3.25;1.10;;;26.40;99.90;;;;;;5087313;28;20037;-75
2022/06/25 09:40:33;;;;;;;2.83;0.95;;;26.50;99.90;;;;;;5090263;28;20024;-73
2022/06/25 09:42:59;;;;;;;2.45;1.20;;;26.60;99.90;;;;;;5092197;28;20158;-75
2022/06/25 09:45:25;;;;;;;3.33;1.25;;;26.90;99.90;;;;;;5095440;28;20047;-74
2022/06/25 09:47:55;;;;;;;4.90;1.48;;;26.80;99.90;;;;;;5096037;28;20395;-76
2022/06/25 09:50:21;;;;;;;3.10;1.40;;;26.90;99.90;;;;;;5094971;28;20535;-74
2022/06/25 09:52:55;;;;;;;1.75;1.10;;;26.80;99.90;;;;;;5097977;28;20434;-75
2022/06/25 09:55:24;;;;;;;2.40;1.00;;;26.70;99.90;;;;;;5079543;28;20067;-74
2022/06/25 09:57:51;;;;;;;3.10;0.90;;;26.70;99.90;;;;;;5090216;28;20099;-76
2022/06/25 10:00:21;;;;;;;3.38;1.13;;;26.50;99.90;;;;;;5096483;28;20024;-74
2022/06/25 10:02:49;;;;;;;2.03;1.40;;;26.60;99.90;;;;;;5093683;28;20115;-74
2022/06/25 10:05:23;;;;;;;3.17;1.00;;;26.60;99.90;;;;;;5096675;28;20039;-75
2022/06/25 10:08:01;;;;;;;3.00;1.20;;;26.60;99.90;;;;;;5089690;28;20028;-74
2022/06/25 10:10:42;;;;;;;4.93;1.40;;;26.70;99.90;;;;;;5087976;28;20385;-73
2022/06/25 10:13:09;;;;;;;1.77;1.10;;;26.80;99.90;;;;;;5092464;28;20020;-74
2022/06/25 10:15:37;;;;;;;4.10;0.98;;;26.90;99.90;;;;;;5092449;28;20028;-74
2022/06/25 10:18:06;;;;;;;3.00;1.55;;;27.10;99.90;;;;;;5083641;28;20016;-74
2022/06/25 10:20:33;;;;;;;4.97;1.13;;;27.20;99.90;;;;;;5093430;28;20020;-76
2022/06/25 10:23:02;;;;;;;2.55;1.40;;;27.10;99.90;;;;;;5095612;28;20276;-75
2022/06/25 10:25:29;;;;;;;2.72;1.20;;;27.10;99.90;;;;;;5097152;28;20054;-73
2022/06/25 10:28:13;;;;;;;2.13;1.00;;;27.20;99.90;;;;;;5091051;28;20060;-75
2022/06/25 10:30:58;;;;;;;3.30;1.10;;;27.20;99.90;;;;;;5080349;28;20056;-74
2022/06/25 10:33:26;;;;;;;3.85;1.00;;;27.50;99.90;;;;;;5088224;28;20481;-74
2022/06/25 10:35:58;;;;;;;1.95;1.20;;;27.80;99.90;;;;;;5085507;28;20106;-74
2022/06/25 10:38:26;;;;;;;4.55;1.45;;;28.00;99.90;;;;;;5083655;28;20075;-74
2022/06/25 10:42:58;;;;;;;6.07;1.48;;;27.80;99.90;;;;;;5087778;28;20070;-74
2022/06/25 10:43:49;;;;;;;2.97;1.20;;;28.00;99.90;;;;;;5089061;28;20030;-75
2022/06/25 10:46:36;;;;;;;1.53;0.90;;;28.10;99.90;;;;;;5088421;28;20021;-73
2022/06/25 10:49:10;;;;;;;7.13;1.40;;;28.30;99.90;;;;;;5083921;28;20370;-74
2022/06/25 10:51:46;;;;;;;8.93;1.20;;;28.60;99.90;;;;;;5090362;28;20024;-73
2022/06/25 10:54:35;;;;;;;6.60;0.98;;;28.60;99.50;;;;;;5093836;28;20039;-73
2022/06/25 10:57:04;;;;;;;3.23;1.17;;;28.50;99.90;;;;;;5084696;28;20040;-73
2022/06/25 10:59:46;;;;;;;2.97;1.30;;;28.30;99.90;;;;;;5096282;28;20106;-72
2022/06/25 11:02:15;;;;;;;2.58;1.52;;;28.20;99.90;;;;;;5077383;28;20055;-73
2022/06/25 11:04:48;;;;;;;2.10;1.05;;;28.10;99.90;;;;;;5079726;28;20028;-73
2022/06/25 11:07:19;;;;;;;6.32;1.85;;;28.30;99.90;;;;;;5089954;28;20066;-73
2022/06/25 11:09:57;;;;;;;7.93;1.30;;;28.30;99.90;;;;;;5086200;28;20028;-73
2022/06/25 11:12:24;;;;;;;4.63;1.83;;;28.30;99.90;;;;;;5081937;28;20025;-72
2022/06/25 11:15:05;;;;;;;2.88;1.25;;;28.30;99.90;;;;;;5090171;28;20059;-73
2022/06/25 11:17:31;;;;;;;1.95;1.20;;;28.30;99.90;;;;;;5091045;28;20016;-74
2022/06/25 11:20:12;;;;;;;2.03;1.30;;;28.40;99.90;;;;;;5093261;28;20472;-74
2022/06/25 11:22:49;;;;;;;3.35;1.27;;;28.60;99.90;;;;;;5093906;28;20035;-74
2022/06/25 11:30:45;;;;;;;5.45;2.10;;;27.60;99.90;;;;;;5088899;28;20043;-74
2022/06/25 11:33:11;;;;;;;5.07;1.85;;;27.50;99.90;;;;;;5090301;28;20016;-75
2022/06/25 11:35:42;;;;;;;5.00;1.65;;;27.20;99.90;;;;;;5092063;28;20024;-75
2022/06/25 11:38:13;;;;;;;;;;;27.00;99.90;;;;;;5090164;28;20016;-75
2022/06/25 11:40:39;;;;;;;5.25;1.50;;;26.80;99.90;;;;;;5093577;28;19904;-75
2022/06/25 11:43:07;;;;;;;4.50;1.48;;;26.70;99.90;;;;;;5092548;28;20403;-75
2022/06/25 11:45:45;;;;;;;4.03;1.70;;;26.70;99.90;;;;;;5095636;28;20046;-75
2022/06/25 11:48:11;;;;;;;6.60;1.80;;;26.70;99.90;;;;;;5095565;28;20042;-74
2022/06/25 11:50:37;;;;;;;6.13;1.65;;;26.60;99.90;;;;;;5082247;28;20040;-75
2022/06/25 11:53:04;;;;;;;4.40;2.05;;;26.40;99.90;;;;;;5084362;28;20078;-76
2022/06/25 11:55:30;;;;;;;3.10;1.55;;;26.10;99.90;;;;;;5081554;28;20025;-73
2022/06/25 11:57:58;;;;;;;7.53;2.50;;;25.90;99.90;;;;;;5082515;28;20020;-75
2022/06/25 12:00:24;;;;;;;4.25;1.73;;;25.80;99.90;;;;;;5085079;28;20074;-74
2022/06/25 12:03:01;;;;;;;3.90;2.03;;;25.80;99.90;;;;;;5084663;28;20028;-75
2022/06/25 12:05:27;;;;;;;12.95;2.42;;;25.60;99.90;;;;;;5085570;28;20027;-74
2022/06/25 12:07:55;;;;;;;4.55;1.95;;;25.80;99.90;;;;;;5087590;28;20032;-74
2022/06/25 12:10:22;;;;;;;5.68;1.90;;;25.80;99.90;;;;;;5089625;28;20039;-75
2022/06/25 12:12:48;;;;;;;6.78;1.70;;;25.90;99.90;;;;;;5091967;28;20061;-76
2022/06/25 12:15:15;;;;;;;5.35;1.75;;;26.00;99.90;;;;;;5093354;28;20012;-74
2022/06/25 12:17:43;;;;;;;10.43;2.15;;;26.00;99.90;;;;;;5091724;28;20026;-75
2022/06/25 12:20:14;;;;;;;2.78;1.70;;;26.20;99.90;;;;;;5095096;28;20016;-76
2022/06/25 12:22:50;;;;;;;8.95;1.83;;;26.70;99.90;;;;;;5095525;28;20026;-75
2022/06/25 12:25:26;;;;;;;3.67;1.63;;;27.00;99.90;;;;;;5094228;28;20024;-75
2022/06/25 12:27:52;;;;;;;5.03;1.75;;;27.00;99.90;;;;;;5081068;28;20024;-74
2022/06/25 12:30:30;;;;;;;3.55;1.73;;;26.90;99.90;;;;;;5078441;28;20489;-74
2022/06/25 12:33:13;;;;;;;11.07;1.73;;;27.00;99.90;;;;;;5081647;28;20055;-75
2022/06/25 12:35:45;;;;;;;3.83;1.42;;;26.90;99.90;;;;;;5083900;28;20046;-75
2022/06/25 12:38:14;;;;;;;3.45;1.75;;;26.80;99.90;;;;;;5083810;28;20059;-75
2022/06/25 12:40:48;;;;;;;5.70;1.75;;;26.80;99.90;;;;;;5094504;28;20065;-74
2022/06/25 12:43:15;;;;;;;4.30;1.90;;;26.60;99.90;;;;;;5090504;28;20024;-74
2022/06/25 12:45:44;;;;;;;5.22;1.33;;;26.60;99.90;;;;;;5096834;28;20380;-75
2022/06/25 12:48:10;;;;;;;3.28;1.75;;;26.70;99.90;;;;;;5095387;28;20484;-76
2022/06/25 12:50:38;;;;;;;2.80;1.58;;;26.60;99.90;;;;;;5098310;28;20048;-75
2022/06/25 12:53:08;;;;;;;7.82;1.60;;;26.60;99.90;;;;;;5099273;28;20056;-74
2022/06/25 12:55:34;;;;;;;6.93;1.80;;;26.50;99.90;;;;;;5091707;28;20020;-76
2022/06/25 12:58:14;;;;;;;5.00;1.92;;;26.30;99.90;;;;;;5082580;28;20055;-74
2022/06/25 13:00:43;;;;;;;3.58;1.92;;;26.20;99.90;;;;;;5081951;28;20539;-74
2022/06/25 13:03:09;;;;;;;6.03;2.22;;;26.00;99.90;;;;;;5085934;28;20028;-74
2022/06/25 13:05:36;;;;;;;3.13;1.90;;;26.00;99.90;;;;;;5082171;28;20024;-75
2022/06/25 13:08:03;;;;;;;3.92;1.92;;;25.80;99.90;;;;;;5088872;28;20067;-75